1862 NOT_NAMED (1862345S07090)


IBTrACS version v04r00. Visit IBTrACS website for data access.
Please direct all questions to the IBTrACS Q and A forum

Storm track - Intensity - Wind Radii - Intensity Data - Source Data - All data

Summary Information

Storm ID 1862345S07090
Start Dec 11 06Z
End Dec 17 06Z
ATCF IDs
Track status Best track data.

Storm track plot

Map of storm track

Intensity plots

No Intensity information for this storm


Radial wind information

No radial wind information for this storm


Position and Intensity Table

BASIN ISO_TIME_________ NATURE LAT LON
degrees north degrees east
SI 1862-12-11 06:00:00 NR -6.80 90.20
SI 09:00:00 NR -6.92 89.93
SI 12:00:00 NR -7.04 89.66
SI 15:00:00 NR -7.16 89.40
SI 18:00:00 NR -7.27 89.13
SI 21:00:00 NR -7.38 88.87
SI 1862-12-12 00:00:00 NR -7.49 88.61
SI 03:00:00 NR -7.60 88.35
SI 06:00:00 NR -7.70 88.10
SI 09:00:00 NR -7.80 87.85
SI 12:00:00 NR -7.89 87.61
SI 15:00:00 NR -7.99 87.37
SI 18:00:00 NR -8.10 87.13
SI 21:00:00 NR -8.22 86.90
SI 1862-12-13 00:00:00 NR -8.36 86.67
SI 03:00:00 NR -8.52 86.43
SI 06:00:00 NR -8.70 86.20
SI 09:00:00 NR -8.93 85.94
SI 12:00:00 NR -9.18 85.68
SI 15:00:00 NR -9.45 85.42
SI 18:00:00 NR -9.74 85.17
SI 21:00:00 NR -10.03 84.93
SI 1862-12-14 00:00:00 NR -10.33 84.70
SI 03:00:00 NR -10.62 84.49
SI 06:00:00 NR -10.90 84.30
SI 09:00:00 NR -11.13 84.14
SI 12:00:00 NR -11.36 84.01
SI 15:00:00 NR -11.58 83.90
SI 18:00:00 NR -11.79 83.80
SI 21:00:00 NR -12.01 83.72
SI 1862-12-15 00:00:00 NR -12.23 83.64
SI 03:00:00 NR -12.46 83.57
SI 06:00:00 NR -12.70 83.50
SI 09:00:00 NR -12.97 83.40
SI 12:00:00 NR -13.26 83.31
SI 15:00:00 NR -13.55 83.22
SI 18:00:00 NR -13.84 83.14
SI 21:00:00 NR -14.14 83.07
SI 1862-12-16 00:00:00 NR -14.43 83.00
SI 03:00:00 NR -14.72 82.94
SI 06:00:00 NR -15.00 82.90
SI 09:00:00 NR -15.27 82.87
SI 12:00:00 NR -15.52 82.85
SI 15:00:00 NR -15.77 82.84
SI 18:00:00 NR -16.00 82.84
SI 21:00:00 NR -16.23 82.85
SI 1862-12-17 00:00:00 NR -16.46 82.87
SI 03:00:00 NR -16.68 82.88
SI 06:00:00 NR -16.90 82.90

Source Information

Agency Information
USA
TOKYO
CMA
HKO
NEWDELHI
REUNION WMO-Best-Tracks.txt:Line=478:xxxx862070
BOM
NADI
WELLINGTON
DS824
TD9636
TD9635
NEUMANN
MLC

All available IBTrACS Data

SEASON BASIN SUBBASIN ISO_TIME_________ NATURE LAT LON DIST2LAND LANDFALL IFLAG USA SSHS REUNION LAT REUNION LON REUNION TYPE REUNION TNUM STORM SPEED STORM DIR
Year degrees north degrees east km km 1 degrees north degrees east 1 kts degrees
1863 SI WA 1862-12-11 06:00:00 NR -6.80 90.20 1121 1121 _____O________ -1 -6.80 90.20 99 9.90 6 246
1863 SI MM 09:00:00 NR -6.92 89.93 1156 1156 _____P________ -1 -6.92 89.93 99 6 246
1863 SI MM 12:00:00 NR -7.04 89.66 1180 1180 _____P________ -1 -7.04 89.66 99 6 246
1863 SI MM 15:00:00 NR -7.16 89.40 1220 1220 _____P________ -1 -7.16 89.40 99 6 246
1863 SI MM 18:00:00 NR -7.27 89.13 1255 1255 _____P________ -1 -7.27 89.13 99 6 246
1863 SI MM 21:00:00 NR -7.38 88.87 1279 1279 _____P________ -1 -7.38 88.87 99 6 247
1863 SI MM 1862-12-12 00:00:00 NR -7.49 88.61 1314 1314 _____P________ -1 -7.49 88.61 99 6 247
1863 SI MM 03:00:00 NR -7.60 88.35 1338 1338 _____P________ -1 -7.60 88.35 99 5 248
1863 SI MM 06:00:00 NR -7.70 88.10 1373 1373 _____O________ -1 -7.70 88.10 99 9.90 5 248
1863 SI MM 09:00:00 NR -7.80 87.85 1398 1398 _____P________ -1 -7.80 87.85 99 5 248
1863 SI MM 12:00:00 NR -7.89 87.61 1432 1432 _____P________ -1 -7.89 87.61 99 5 248
1863 SI MM 15:00:00 NR -7.99 87.37 1457 1457 _____P________ -1 -7.99 87.37 99 5 246
1863 SI MM 18:00:00 NR -8.10 87.13 1491 1491 _____P________ -1 -8.10 87.13 99 5 244
1863 SI MM 21:00:00 NR -8.22 86.90 1515 1515 _____P________ -1 -8.22 86.90 99 5 241
1863 SI MM 1862-12-13 00:00:00 NR -8.36 86.67 1546 1546 _____P________ -1 -8.36 86.67 99 5 237
1863 SI MM 03:00:00 NR -8.52 86.43 1580 1580 _____P________ -1 -8.52 86.43 99 6 234
1863 SI MM 06:00:00 NR -8.70 86.20 1610 1610 _____O________ -1 -8.70 86.20 99 9.90 6 230
1863 SI MM 09:00:00 NR -8.93 85.94 1650 1650 _____P________ -1 -8.93 85.94 99 7 227
1863 SI MM 12:00:00 NR -9.18 85.68 1685 1685 _____P________ -1 -9.18 85.68 99 7 224
1863 SI MM 15:00:00 NR -9.45 85.42 1731 1731 _____P________ -1 -9.45 85.42 99 8 222
1863 SI MM 18:00:00 NR -9.74 85.17 1761 1761 _____P________ -1 -9.74 85.17 99 8 220
1863 SI MM 21:00:00 NR -10.03 84.93 1806 1806 _____P________ -1 -10.03 84.93 99 8 218
1863 SI MM 1862-12-14 00:00:00 NR -10.33 84.70 1842 1842 _____P________ -1 -10.33 84.70 99 7 216
1863 SI MM 03:00:00 NR -10.62 84.49 1878 1878 _____P________ -1 -10.62 84.49 99 7 214
1863 SI MM 06:00:00 NR -10.90 84.30 1914 1914 _____O________ -1 -10.90 84.30 99 9.90 6 213
1863 SI MM 09:00:00 NR -11.13 84.14 1943 1943 _____P________ -1 -11.13 84.14 99 5 212
1863 SI MM 12:00:00 NR -11.36 84.01 1971 1971 _____P________ -1 -11.36 84.01 99 5 209
1863 SI MM 15:00:00 NR -11.58 83.90 1993 1993 _____P________ -1 -11.58 83.90 99 5 205
1863 SI MM 18:00:00 NR -11.79 83.80 2014 2014 _____P________ -1 -11.79 83.80 99 5 202
1863 SI MM 21:00:00 NR -12.01 83.72 2034 2034 _____P________ -1 -12.01 83.72 99 5 200
1863 SI MM 1862-12-15 00:00:00 NR -12.23 83.64 2054 2054 _____P________ -1 -12.23 83.64 99 5 198
1863 SI MM 03:00:00 NR -12.46 83.57 2076 2076 _____P________ -1 -12.46 83.57 99 5 196
1863 SI MM 06:00:00 NR -12.70 83.50 2097 2097 _____O________ -1 -12.70 83.50 99 9.90 5 198
1863 SI MM 09:00:00 NR -12.97 83.40 2125 2125 _____P________ -1 -12.97 83.40 99 6 198
1863 SI MM 12:00:00 NR -13.26 83.31 2154 2154 _____P________ -1 -13.26 83.31 99 6 197
1863 SI MM 15:00:00 NR -13.55 83.22 2176 2176 _____P________ -1 -13.55 83.22 99 6 196
1863 SI MM 18:00:00 NR -13.84 83.14 2204 2204 _____P________ -1 -13.84 83.14 99 6 194
1863 SI MM 21:00:00 NR -14.14 83.07 2224 2224 _____P________ -1 -14.14 83.07 99 6 193
1863 SI MM 1862-12-16 00:00:00 NR -14.43 83.00 2253 2253 _____P________ -1 -14.43 83.00 99 6 192
1863 SI MM 03:00:00 NR -14.72 82.94 2283 2283 _____P________ -1 -14.72 82.94 99 6 190
1863 SI MM 06:00:00 NR -15.00 82.90 2303 2303 _____O________ -1 -15.00 82.90 99 9.90 6 187
1863 SI MM 09:00:00 NR -15.27 82.87 2325 2325 _____P________ -1 -15.27 82.87 99 5 184
1863 SI MM 12:00:00 NR -15.52 82.85 2339 2339 _____P________ -1 -15.52 82.85 99 5 0
1863 SI MM 15:00:00 NR -15.77 82.84 2369 2369 _____P________ -1 -15.77 82.84 99 5 0
1863 SI MM 18:00:00 NR -16.00 82.84 2383 2383 _____P________ -1 -16.00 82.84 99 5 0
1863 SI MM 21:00:00 NR -16.23 82.85 2390 2390 _____P________ -1 -16.23 82.85 99 5 0
1863 SI MM 1862-12-17 00:00:00 NR -16.46 82.87 2412 2412 _____P________ -1 -16.46 82.87 99 5 174
1863 SI MM 03:00:00 NR -16.68 82.88 2427 2427 _____P________ -1 -16.68 82.88 99 4 175
1863 SI MM 06:00:00 NR -16.90 82.90 2442 _____O________ -1 -16.90 82.90 99 9.90 4 0